Time;durP1;ratioP1;P1;durP2;ratioP2;P2;SDS_P1;SDS_P2;PMS_P1;PMS_P2;Temp;Humidity;BMP_temperature;BMP_pressure;BME280_temperature;BME280_humidity;BME280_pressure;Samples;Min_cycle;Max_cycle;Signal;HPM_P1;HPM_P2
2022/01/07 00:02:08;;;;;;;2.25;0.98;;;;;;;-4.92;100.00;97521.31;5171838;27;20056;-51
2022/01/07 00:04:36;;;;;;;1.77;0.93;;;;;;;-4.94;100.00;97539.53;5171843;27;20046;-49
2022/01/07 00:07:03;;;;;;;2.15;0.95;;;;;;;-5.05;100.00;97546.22;5172011;27;20344;-54
2022/01/07 00:09:29;;;;;;;0.70;0.70;;;;;;;-5.08;100.00;97566.31;5171274;27;20072;-50
2022/01/07 00:11:56;;;;;;;1.60;1.10;;;;;;;-5.05;100.00;97586.28;5171615;27;20046;-49
2022/01/07 00:14:22;;;;;;;0.75;0.75;;;;;;;-5.06;100.00;97606.88;5172036;27;20430;-49
2022/01/07 00:16:49;;;;;;;3.25;1.10;;;;;;;-5.05;100.00;97634.41;5171484;27;20126;-49
2022/01/07 00:19:15;;;;;;;3.80;1.00;;;;;;;-5.11;100.00;97655.09;5171878;27;20417;-53
2022/01/07 00:21:42;;;;;;;1.23;1.13;;;;;;;-5.11;100.00;97664.97;5172027;27;20493;-49
2022/01/07 00:24:09;;;;;;;1.90;1.13;;;;;;;-5.09;100.00;97694.88;5175143;27;20048;-49
2022/01/07 00:26:35;;;;;;;1.42;0.90;;;;;;;-5.10;100.00;97734.16;5175065;27;20144;-49
2022/01/07 00:29:01;;;;;;;1.92;1.20;;;;;;;-5.14;100.00;97764.44;5175115;27;20114;-52
2022/01/07 00:31:28;;;;;;;1.83;1.35;;;;;;;-5.19;100.00;97796.63;5174661;27;20046;-50
2022/01/07 00:33:54;;;;;;;1.52;1.20;;;;;;;-5.21;100.00;97818.25;5174801;27;20046;-50
2022/01/07 00:36:20;;;;;;;3.75;1.30;;;;;;;-5.19;100.00;97842.03;5174679;27;20050;-50
2022/01/07 00:38:47;;;;;;;4.65;1.70;;;;;;;-5.22;100.00;97894.16;5174667;27;20047;-50
2022/01/07 00:41:13;;;;;;;3.25;1.55;;;;;;;-5.25;100.00;97932.94;5174652;27;20050;-50
2022/01/07 00:43:40;;;;;;;2.08;1.50;;;;;;;-5.29;100.00;97945.31;5174464;27;20102;-48
2022/01/07 00:46:06;;;;;;;3.00;1.67;;;;;;;-5.29;100.00;97977.38;5174816;27;20057;-49
2022/01/07 00:48:32;;;;;;;1.90;1.30;;;;;;;-5.28;100.00;98004.88;5174466;27;20045;-50
2022/01/07 00:50:58;;;;;;;2.88;1.60;;;;;;;-5.35;100.00;97994.53;5174707;27;20050;-49
2022/01/07 00:53:25;;;;;;;2.20;1.30;;;;;;;-5.34;100.00;98017.50;5174446;27;20050;-49
2022/01/07 00:55:51;;;;;;;2.05;1.40;;;;;;;-5.34;100.00;98033.53;5174342;27;20105;-49
2022/01/07 00:58:18;;;;;;;2.70;1.75;;;;;;;-5.32;100.00;98052.75;5174388;27;20052;-53
2022/01/07 01:00:44;;;;;;;2.47;1.65;;;;;;;-5.34;100.00;98065.56;5174075;27;20082;-49
2022/01/07 01:03:11;;;;;;;3.65;1.60;;;;;;;-5.33;100.00;98093.09;5174396;27;20046;-51
2022/01/07 01:05:37;;;;;;;2.72;1.67;;;;;;;-5.39;100.00;98112.94;5174290;27;20094;-49
2022/01/07 01:08:04;;;;;;;2.97;1.50;;;;;;;-5.40;100.00;98149.53;5174709;27;20077;-51
2022/01/07 01:10:30;;;;;;;2.25;1.52;;;;;;;-5.44;100.00;98193.91;5173549;27;20097;-50
2022/01/07 01:12:56;;;;;;;3.63;1.73;;;;;;;-5.44;100.00;98225.97;5174263;27;20507;-51
2022/01/07 01:15:25;;;;;;;2.17;1.27;;;;;;;-5.40;100.00;98252.91;5173881;27;20129;-51
2022/01/07 01:17:53;;;;;;;3.05;1.40;;;;;;;-5.41;100.00;98288.72;5174393;27;20046;-49
2022/01/07 01:20:20;;;;;;;2.95;1.48;;;;;;;-5.44;100.00;98311.44;5173855;27;20129;-53
2022/01/07 01:22:47;;;;;;;2.60;1.45;;;;;;;-5.48;100.00;98337.13;5174202;27;20122;-53
2022/01/07 01:25:13;;;;;;;2.42;1.45;;;;;;;-5.45;100.00;98371.28;5173961;27;20042;-50
2022/01/07 01:27:40;;;;;;;3.40;1.60;;;;;;;-5.46;100.00;98397.22;5173845;27;20046;-53
2022/01/07 01:30:11;;;;;;;5.15;1.52;;;;;;;-5.46;100.00;98423.13;5174054;27;20557;-49
2022/01/07 01:32:38;;;;;;;3.15;1.30;;;;;;;-5.42;100.00;98450.06;5173568;27;20094;-52
2022/01/07 01:35:06;;;;;;;1.33;1.20;;;;;;;-5.48;100.00;98476.00;5173884;27;20099;-53
2022/01/07 01:37:32;;;;;;;1.40;1.30;;;;;;;-5.48;100.00;98500.84;5173859;27;20093;-51
2022/01/07 01:39:59;;;;;;;2.80;1.35;;;;;;;-5.48;100.00;98513.41;5174146;27;20129;-49
2022/01/07 01:42:25;;;;;;;2.17;1.27;;;;;;;-5.44;100.00;98523.25;5173523;27;20062;-50
2022/01/07 01:44:51;;;;;;;1.35;1.10;;;;;;;-5.41;100.00;98529.94;5173812;27;20493;-49
2022/01/07 01:47:17;;;;;;;1.92;1.15;;;;;;;-5.39;100.00;98537.69;5173486;27;20145;-50
2022/01/07 01:49:45;;;;;;;1.85;1.45;;;;;;;-5.39;100.00;98537.69;5174085;27;20516;-50
2022/01/07 01:52:11;;;;;;;1.65;1.33;;;;;;;-5.48;100.00;98540.13;5173783;27;20461;-51
2022/01/07 01:54:37;;;;;;;3.30;1.10;;;;;;;-5.46;100.00;98556.69;5173505;27;20054;-50
2022/01/07 01:57:04;;;;;;;2.78;1.60;;;;;;;-5.45;100.00;98577.75;5173476;27;20046;-50
2022/01/07 01:59:32;;;;;;;1.63;1.00;;;;;;;-5.44;100.00;98597.25;5173364;27;20053;-49
2022/01/07 02:01:59;;;;;;;3.53;1.35;;;;;;;-5.45;100.00;98606.34;5173238;27;20050;-49
2022/01/07 02:04:26;;;;;;;3.28;1.27;;;;;;;-5.45;100.00;98609.81;5173135;27;20511;-49
2022/01/07 02:06:54;;;;;;;2.17;1.13;;;;;;;-5.49;100.00;98619.47;5173617;27;20053;-49
2022/01/07 02:09:25;;;;;;;2.08;1.23;;;;;;;-5.48;100.00;98629.06;5172642;27;20046;-49
2022/01/07 02:11:51;;;;;;;3.67;1.42;;;;;;;-5.50;100.00;98639.25;5173649;27;20081;-50
2022/01/07 02:14:18;;;;;;;1.45;1.23;;;;;;;-5.51;100.00;98658.19;5173108;27;20056;-49
2022/01/07 02:16:44;;;;;;;4.78;1.50;;;;;;;-5.56;100.00;98677.72;5173188;27;20413;-48
2022/01/07 02:19:11;;;;;;;3.30;1.38;;;;;;;-5.59;100.00;98704.97;5173254;27;20046;-49
2022/01/07 02:21:38;;;;;;;2.25;2.05;;;;;;;-5.60;100.00;98730.03;5172999;27;20046;-49
2022/01/07 02:24:05;;;;;;;6.15;1.50;;;;;;;-5.59;100.00;98753.03;5173129;27;20129;-49
2022/01/07 02:26:34;;;;;;;4.35;1.73;;;;;;;-5.57;100.00;98780.25;5173193;27;20416;-49
2022/01/07 02:29:00;;;;;;;5.43;1.92;;;;;;;-5.55;100.00;98793.34;5173126;27;20046;-49
2022/01/07 02:31:27;;;;;;;2.17;1.30;;;;;;;-5.57;100.00;98800.81;5172975;27;20046;-49
2022/01/07 02:33:53;;;;;;;6.40;1.73;;;;;;;-5.48;100.00;98817.91;5173237;27;20078;-48
2022/01/07 02:36:20;;;;;;;2.97;1.33;;;;;;;-5.31;100.00;98834.47;5172838;27;20501;-49
2022/01/07 02:38:47;;;;;;;3.33;1.42;;;;;;;-5.16;100.00;98851.53;5173022;27;20122;-49
2022/01/07 02:41:13;;;;;;;1.90;1.52;;;;;;;-5.00;100.00;98870.00;5172747;27;20053;-49
2022/01/07 02:43:39;;;;;;;1.98;1.33;;;;;;;-4.89;100.00;98861.94;5172765;27;20050;-49
2022/01/07 02:46:05;;;;;;;1.77;1.10;;;;;;;-4.85;100.00;98865.69;5171956;27;20050;-50
2022/01/07 02:48:32;;;;;;;3.10;1.80;;;;;;;-4.76;100.00;98867.53;5172589;27;20046;-49
2022/01/07 02:50:58;;;;;;;2.33;1.30;;;;;;;-4.64;100.00;98861.06;5172775;27;20046;-48
2022/01/07 02:53:24;;;;;;;7.80;1.55;;;;;;;-4.49;100.00;98847.66;5172469;27;20042;-48
2022/01/07 02:55:51;;;;;;;4.35;1.60;;;;;;;-4.37;100.00;98831.25;5172824;27;20047;-49
2022/01/07 02:58:18;;;;;;;3.42;1.60;;;;;;;-4.29;100.00;98817.31;5172303;27;20420;-49
2022/01/07 03:00:45;;;;;;;3.63;1.58;;;;;;;-4.34;100.00;98796.72;5172600;27;20480;-51
2022/01/07 03:03:11;;;;;;;3.80;1.40;;;;;;;-4.34;100.00;98782.53;5172498;27;20133;-52
2022/01/07 03:05:41;;;;;;;2.13;1.42;;;;;;;-4.43;100.00;98738.69;5172386;27;20405;-52
2022/01/07 03:08:08;;;;;;;3.40;1.48;;;;;;;-4.57;100.00;98735.84;5172353;27;20049;-49
2022/01/07 03:10:34;;;;;;;2.33;1.55;;;;;;;-4.66;100.00;98735.63;5172220;27;20046;-53
2022/01/07 03:13:03;;;;;;;2.63;1.80;;;;;;;-4.82;100.00;98752.81;5172173;27;20058;-51
2022/01/07 03:15:31;;;;;;;2.85;1.65;;;;;;;-4.89;100.00;98785.19;5172039;27;20046;-50
2022/01/07 03:17:57;;;;;;;5.05;2.08;;;;;;;-4.90;100.00;98812.19;5172185;27;20050;-51
2022/01/07 03:20:24;;;;;;;2.30;1.60;;;;;;;-5.00;100.00;98829.06;5172059;27;20046;-52
2022/01/07 03:22:51;;;;;;;2.15;1.55;;;;;;;-5.04;100.00;98842.16;5172301;27;20386;-49
2022/01/07 03:25:18;;;;;;;2.38;1.40;;;;;;;-5.07;100.00;98853.41;5172001;27;20046;-52
2022/01/07 03:27:45;;;;;;;8.23;1.77;;;;;;;-5.08;100.00;98867.06;5172115;27;20458;-49
2022/01/07 03:30:14;;;;;;;1.77;1.60;;;;;;;-5.06;100.00;98886.31;5172186;27;20481;-49
2022/01/07 03:32:40;;;;;;;2.22;1.42;;;;;;;-5.09;100.00;98892.19;5172373;27;20042;-51
2022/01/07 03:35:11;;;;;;;2.88;1.40;;;;;;;-5.11;100.00;98907.69;5172040;27;20462;-49
2022/01/07 03:37:37;;;;;;;4.25;1.75;;;;;;;-5.10;100.00;98919.97;5172202;27;20057;-50
2022/01/07 03:40:05;;;;;;;9.10;1.92;;;;;;;-5.15;100.00;98922.66;5171812;27;20048;-49
2022/01/07 03:42:31;;;;;;;6.65;1.48;;;;;;;-5.17;100.00;98938.94;5171801;27;20082;-49
2022/01/07 03:44:57;;;;;;;3.60;1.48;;;;;;;-5.19;100.00;98935.75;5171875;27;20060;-52
2022/01/07 03:47:24;;;;;;;2.22;1.60;;;;;;;-5.17;100.00;98951.50;5171602;27;20042;-52
2022/01/07 03:49:51;;;;;;;2.38;1.70;;;;;;;-5.22;100.00;98949.66;5172052;27;20046;-49
2022/01/07 03:52:17;;;;;;;3.10;1.60;;;;;;;-5.21;100.00;98954.72;5171710;27;20130;-50
2022/01/07 03:54:44;;;;;;;1.88;1.15;;;;;;;-5.22;100.00;98960.34;5171951;27;20050;-49
2022/01/07 03:57:11;;;;;;;1.35;1.25;;;;;;;-5.23;100.00;98964.88;5173349;27;20046;-50
2022/01/07 03:59:37;;;;;;;4.05;1.15;;;;;;;-5.21;100.00;98969.94;5175565;27;20418;-51
2022/01/07 04:02:04;;;;;;;1.58;1.27;;;;;;;-5.11;100.00;98966.47;5175200;27;20092;-52
2022/01/07 04:04:31;;;;;;;2.90;1.38;;;;;;;-5.16;100.00;98974.47;5175517;27;20050;-50
2022/01/07 04:06:57;;;;;;;3.90;1.60;;;;;;;-5.09;100.00;98977.72;5175182;27;20060;-50
2022/01/07 04:09:23;;;;;;;3.40;1.75;;;;;;;-5.14;100.00;98975.03;5174785;27;20053;-50
2022/01/07 04:11:50;;;;;;;5.10;1.33;;;;;;;-5.15;100.00;98984.13;5175247;27;20147;-50
2022/01/07 04:14:16;;;;;;;4.97;1.25;;;;;;;-5.09;100.00;98975.84;5175046;27;20058;-50
2022/01/07 04:16:42;;;;;;;5.13;1.55;;;;;;;-5.05;100.00;98974.22;5175088;27;20477;-49
2022/01/07 04:19:08;;;;;;;2.80;1.23;;;;;;;-4.85;100.00;98970.75;5175087;27;20050;-50
2022/01/07 04:21:35;;;;;;;1.92;1.13;;;;;;;-4.80;100.00;98972.63;5175142;27;20050;-50
2022/01/07 04:24:01;;;;;;;4.90;1.30;;;;;;;-4.76;100.00;98971.81;5175057;27;20057;-50
2022/01/07 04:26:28;;;;;;;5.68;1.30;;;;;;;-4.77;100.00;98980.09;5175253;27;20049;-50
2022/01/07 04:28:54;;;;;;;2.22;1.30;;;;;;;-4.82;100.00;98982.78;5174840;27;20425;-48
2022/01/07 04:31:20;;;;;;;3.03;1.50;;;;;;;-4.86;100.00;98987.88;5175158;27;20057;-49
2022/01/07 04:33:46;;;;;;;2.50;1.33;;;;;;;-4.90;100.00;98986.78;5175004;27;20052;-49
2022/01/07 04:36:12;;;;;;;2.33;1.20;;;;;;;-4.96;100.00;98982.53;5174742;27;20573;-51
2022/01/07 04:38:39;;;;;;;2.78;1.30;;;;;;;-4.95;100.00;98994.03;5174900;27;20046;-50
2022/01/07 04:41:06;;;;;;;1.73;1.20;;;;;;;-4.97;100.00;98989.72;5174828;27;20050;-48
2022/01/07 04:43:32;;;;;;;3.00;1.30;;;;;;;-4.97;100.00;98986.25;5175220;27;20050;-49
2022/01/07 04:45:58;;;;;;;4.28;1.42;;;;;;;-5.00;100.00;98997.47;5175116;27;20810;-51
2022/01/07 04:48:25;;;;;;;3.35;1.30;;;;;;;-4.99;100.00;98993.75;5175052;27;20046;-50
2022/01/07 04:50:51;;;;;;;5.35;1.73;;;;;;;-5.02;100.00;98991.63;5174700;27;20046;-51
2022/01/07 04:53:17;;;;;;;2.97;1.10;;;;;;;-5.07;100.00;98999.63;5174652;27;20078;-52
2022/01/07 04:55:44;;;;;;;5.32;1.70;;;;;;;-5.06;100.00;98987.88;5174496;27;20042;-52
2022/01/07 04:58:13;;;;;;;2.28;1.30;;;;;;;-5.02;100.00;98981.72;5174304;27;20133;-52
2022/01/07 05:00:41;;;;;;;4.13;1.40;;;;;;;-5.01;100.00;98994.00;5174314;27;20098;-51
2022/01/07 05:03:08;;;;;;;6.55;1.40;;;;;;;-5.04;100.00;99004.44;5174874;27;20157;-49
2022/01/07 05:05:34;;;;;;;3.58;1.55;;;;;;;-5.02;100.00;99002.31;5174614;27;20880;-49
2022/01/07 05:08:02;;;;;;;3.08;1.58;;;;;;;-4.99;100.00;98991.09;5173835;27;20046;-51
2022/01/07 05:10:28;;;;;;;4.57;1.38;;;;;;;-5.01;100.00;99002.03;5174022;27;20057;-50
2022/01/07 05:12:56;;;;;;;2.08;1.20;;;;;;;-5.00;100.00;98997.47;5174223;27;20050;-49
2022/01/07 05:15:23;;;;;;;2.05;1.20;;;;;;;-5.02;100.00;98997.75;5174668;27;20050;-49
2022/01/07 05:17:50;;;;;;;3.67;1.17;;;;;;;-4.96;100.00;98993.22;5174340;27;20046;-48
2022/01/07 05:20:17;;;;;;;3.97;1.55;;;;;;;-4.91;100.00;98997.75;5174690;27;20050;-52
2022/01/07 05:22:44;;;;;;;2.45;1.70;;;;;;;-4.84;100.00;98988.41;5174245;27;20050;-53
2022/01/07 05:25:12;;;;;;;3.10;1.38;;;;;;;-4.76;100.00;98993.22;5174389;27;20504;-50
2022/01/07 05:27:38;;;;;;;4.63;1.83;;;;;;;-4.69;100.00;98998.31;5174317;27;20050;-53
2022/01/07 05:30:07;;;;;;;3.45;1.63;;;;;;;-4.61;100.00;98999.63;5174158;27;20375;-52
2022/01/07 05:32:34;;;;;;;2.33;1.50;;;;;;;-4.53;100.00;99010.59;5173789;27;20085;-52
2022/01/07 05:35:00;;;;;;;2.70;1.58;;;;;;;-4.50;100.00;99014.59;5174000;27;20413;-49
2022/01/07 05:37:26;;;;;;;1.38;1.27;;;;;;;-4.37;100.00;99018.59;5174173;27;20455;-51
2022/01/07 05:39:52;;;;;;;1.27;1.10;;;;;;;-4.29;100.00;99031.44;5174184;27;20390;-51
2022/01/07 05:42:19;;;;;;;3.30;1.55;;;;;;;-4.27;100.00;99039.97;5174156;27;20053;-50
2022/01/07 05:44:45;;;;;;;3.70;2.03;;;;;;;-4.21;100.00;99038.91;5173655;27;20050;-48
2022/01/07 05:47:12;;;;;;;3.92;1.77;;;;;;;-4.10;100.00;99040.50;5173740;27;20068;-49
2022/01/07 05:49:38;;;;;;;5.00;1.48;;;;;;;-4.04;100.00;99049.31;5173637;27;20042;-51
2022/01/07 05:52:05;;;;;;;8.30;2.20;;;;;;;-3.98;100.00;99060.81;5173904;27;20058;-53
2022/01/07 05:54:31;;;;;;;3.35;1.42;;;;;;;-3.93;100.00;99060.78;5173329;27;20117;-48
2022/01/07 05:56:57;;;;;;;2.67;1.40;;;;;;;-3.92;100.00;99078.47;5173815;27;20043;-50
2022/01/07 05:59:24;;;;;;;12.07;2.17;;;;;;;-4.05;100.00;99069.94;5173534;27;20050;-49
2022/01/07 06:01:50;;;;;;;4.82;1.73;;;;;;;-4.08;100.00;99080.38;5173372;27;20042;-48
2022/01/07 06:04:17;;;;;;;3.22;1.80;;;;;;;-4.16;100.00;99083.63;5173344;27;20054;-52
2022/01/07 06:06:43;;;;;;;2.85;1.55;;;;;;;-4.28;100.00;99087.34;5173256;27;20509;-49
2022/01/07 06:09:09;;;;;;;1.40;1.30;;;;;;;-4.28;100.00;99084.69;5173331;27;20077;-51
2022/01/07 06:11:36;;;;;;;4.32;1.35;;;;;;;-4.24;100.00;99084.16;5172727;27;20109;-51
2022/01/07 06:14:03;;;;;;;3.05;1.50;;;;;;;-4.25;100.00;99080.66;5173045;27;20078;-49
2022/01/07 06:16:29;;;;;;;4.00;1.80;;;;;;;-4.23;100.00;99083.06;5173161;27;20167;-51
2022/01/07 06:18:56;;;;;;;6.55;1.60;;;;;;;-4.30;100.00;99097.56;5172561;27;20052;-50
2022/01/07 06:21:24;;;;;;;2.38;1.40;;;;;;;-4.28;100.00;99099.94;5172719;27;20050;-49
2022/01/07 06:23:50;;;;;;;5.15;1.45;;;;;;;-4.32;100.00;99105.03;5172810;27;20046;-50
2022/01/07 06:26:18;;;;;;;1.60;1.35;;;;;;;-4.36;100.00;99109.31;5173056;27;20050;-53
2022/01/07 06:28:44;;;;;;;6.25;1.30;;;;;;;-4.34;100.00;99109.03;5173211;27;20049;-49
2022/01/07 06:31:11;;;;;;;5.35;1.38;;;;;;;-4.28;100.00;99116.00;5172957;27;20050;-51
2022/01/07 06:33:37;;;;;;;3.08;1.45;;;;;;;-4.24;100.00;99119.75;5172794;27;20109;-49
2022/01/07 06:36:04;;;;;;;2.03;1.33;;;;;;;-4.16;100.00;99115.75;5172897;27;20449;-53
2022/01/07 06:38:31;;;;;;;5.70;1.42;;;;;;;-4.23;100.00;99121.38;5172754;27;20053;-51
2022/01/07 06:40:57;;;;;;;3.03;1.70;;;;;;;-4.22;100.00;99128.31;5172917;27;20054;-50
2022/01/07 06:43:23;;;;;;;3.88;1.15;;;;;;;-4.15;100.00;99120.00;5172707;27;20070;-51
2022/01/07 06:45:49;;;;;;;4.72;1.10;;;;;;;-4.21;100.00;99129.13;5172881;27;20048;-50
2022/01/07 06:48:18;;;;;;;4.60;1.27;;;;;;;-4.27;100.00;99128.31;5172703;27;20086;-51
2022/01/07 06:50:44;;;;;;;3.90;1.50;;;;;;;-4.31;100.00;99129.91;5172829;27;20046;-50
2022/01/07 06:53:11;;;;;;;4.47;1.50;;;;;;;-4.34;100.00;99119.75;5172646;27;20053;-49
2022/01/07 06:55:38;;;;;;;2.33;1.30;;;;;;;-4.39;100.00;99117.88;5172612;27;20049;-50
2022/01/07 06:58:04;;;;;;;3.08;1.20;;;;;;;-4.38;100.00;99132.06;5172440;27;20050;-53
2022/01/07 07:00:31;;;;;;;4.50;1.40;;;;;;;-4.40;100.00;99121.59;5172465;27;20106;-53
2022/01/07 07:02:57;;;;;;;2.58;1.23;;;;;;;-4.37;100.00;99129.09;5172517;27;20048;-53
2022/01/07 07:05:24;;;;;;;1.75;1.20;;;;;;;-4.36;100.00;99122.69;5172164;27;20050;-52
2022/01/07 07:07:50;;;;;;;2.08;1.13;;;;;;;-4.32;100.00;99131.78;5172551;27;20046;-51
2022/01/07 07:10:17;;;;;;;5.03;1.98;;;;;;;-4.24;100.00;99143.03;5171798;27;20052;-50
2022/01/07 07:12:44;;;;;;;7.60;1.88;;;;;;;-4.09;100.00;99143.03;5172487;27;20098;-49
2022/01/07 07:15:10;;;;;;;1.20;1.00;;;;;;;-3.86;100.00;99142.47;5172226;27;20046;-49
2022/01/07 07:17:37;;;;;;;2.05;1.08;;;;;;;-3.69;100.00;99141.38;5172399;27;20513;-48
2022/01/07 07:20:04;;;;;;;4.60;1.58;;;;;;;-3.66;100.00;99149.66;5172230;27;20042;-49
2022/01/07 07:22:30;;;;;;;6.28;1.33;;;;;;;-3.65;100.00;99158.50;5172075;27;20117;-50
2022/01/07 07:24:56;;;;;;;3.03;1.35;;;;;;;-3.56;100.00;99159.56;5172317;27;20046;-53
2022/01/07 07:27:22;;;;;;;2.28;1.10;;;;;;;-3.66;100.00;99156.91;5172233;27;20046;-50
2022/01/07 07:29:49;;;;;;;4.55;1.50;;;;;;;-3.70;100.00;99161.97;5172197;27;20046;-50
2022/01/07 07:32:21;;;;;;;2.17;1.23;;;;;;;-3.73;100.00;99167.06;5175356;27;20048;-52
2022/01/07 07:35:01;;;;;;;2.90;1.05;;;;;;;-3.70;100.00;99164.66;5175854;27;20043;-51
2022/01/07 07:37:27;;;;;;;2.22;1.15;;;;;;;-3.44;100.00;99165.41;5175746;27;20046;-51
2022/01/07 07:39:53;;;;;;;3.35;1.20;;;;;;;-3.20;100.00;99164.78;5175556;27;20042;-53
2022/01/07 07:42:20;;;;;;;3.05;1.50;;;;;;;-3.07;100.00;99166.88;5175530;27;20429;-51
2022/01/07 07:44:46;;;;;;;3.90;1.30;;;;;;;-3.00;100.00;99161.22;5175872;27;20079;-53
2022/01/07 07:47:13;;;;;;;2.97;1.23;;;;;;;-2.95;100.00;99164.69;5175590;27;20076;-52
2022/01/07 07:49:39;;;;;;;4.88;1.50;;;;;;;-2.89;100.00;99154.75;5175727;27;20505;-49
2022/01/07 07:52:06;;;;;;;2.95;1.60;;;;;;;-2.86;100.00;99146.94;5175476;27;20054;-51
2022/01/07 07:54:32;;;;;;;5.25;1.35;;;;;;;-2.78;100.00;99134.81;5175470;27;20050;-49
2022/01/07 07:56:59;;;;;;;2.75;1.33;;;;;;;-2.77;100.00;99135.63;5175586;27;20104;-50
2022/01/07 07:59:25;;;;;;;6.55;1.73;;;;;;;-2.75;100.00;99117.38;5175257;27;20097;-52
2022/01/07 08:01:52;;;;;;;6.32;1.60;;;;;;;-2.75;100.00;99118.16;5175320;27;20416;-50
2022/01/07 08:04:20;;;;;;;3.78;1.83;;;;;;;-2.78;100.00;99115.25;5175492;27;20057;-50
2022/01/07 08:06:46;;;;;;;4.68;1.50;;;;;;;-2.74;100.00;99118.97;5175084;27;20050;-52
2022/01/07 08:09:13;;;;;;;3.65;1.40;;;;;;;-2.57;100.00;99119.38;5175300;27;20057;-52
2022/01/07 08:11:49;;;;;;;6.78;1.77;;;;;;;-2.36;100.00;99120.06;5175180;27;20207;-50
2022/01/07 08:17:00;;;;;;;2.88;1.48;;;;;;;-2.06;100.00;99073.31;5175293;27;20049;-51
2022/01/07 08:19:27;;;;;;;3.88;1.42;;;;;;;-1.95;100.00;99061.38;5175033;27;20046;-51
2022/01/07 08:21:53;;;;;;;3.33;1.70;;;;;;;-1.74;100.00;99031.59;5175034;27;20046;-50
2022/01/07 08:24:20;;;;;;;4.25;1.45;;;;;;;-2.01;100.00;98975.75;5175138;27;20114;-50
2022/01/07 08:26:46;;;;;;;3.03;1.20;;;;;;;-1.98;100.00;98953.69;5175020;27;20046;-52
2022/01/07 08:29:14;;;;;;;5.28;1.58;;;;;;;-1.95;100.00;98939.69;5174730;27;20049;-49
2022/01/07 08:37:10;;;;;;;4.65;1.10;;;;;;;-1.48;100.00;98749.78;5174724;27;20106;-53
2022/01/07 08:39:36;;;;;;;2.72;1.30;;;;;;;-1.63;100.00;98712.41;5174576;27;20145;-50
2022/01/07 08:42:02;;;;;;;2.40;1.40;;;;;;;-1.66;100.00;98676.97;5173911;27;20385;-50
2022/01/07 08:44:29;;;;;;;4.15;1.70;;;;;;;-1.86;100.00;98649.66;5174781;27;20050;-51
2022/01/07 08:46:55;;;;;;;4.47;1.65;;;;;;;-1.95;100.00;98671.03;5174722;27;20137;-54
2022/01/07 08:49:21;;;;;;;4.82;1.30;;;;;;;-2.11;100.00;98670.47;5174632;27;20057;-50
2022/01/07 08:51:48;;;;;;;3.53;1.52;;;;;;;-2.17;100.00;98704.66;5174683;27;20054;-52
2022/01/07 08:54:15;;;;;;;2.78;1.10;;;;;;;-2.23;100.00;98748.81;5174396;27;20136;-51
2022/01/07 08:56:41;;;;;;;2.67;1.25;;;;;;;-2.22;100.00;98790.69;5174554;27;20046;-49
2022/01/07 08:59:07;;;;;;;5.45;1.60;;;;;;;-2.22;100.00;98806.00;5174578;27;20564;-49
2022/01/07 09:01:33;;;;;;;2.92;1.60;;;;;;;-2.08;100.00;98824.88;5174210;27;20625;-50
2022/01/07 09:04:00;;;;;;;4.35;1.25;;;;;;;-2.01;100.00;98847.59;5174263;27;20048;-51
2022/01/07 09:06:26;;;;;;;4.15;1.50;;;;;;;-2.06;100.00;98836.94;5174025;27;20049;-50
2022/01/07 09:08:53;;;;;;;1.83;1.23;;;;;;;-2.10;100.00;98849.31;5174487;27;20432;-49
2022/01/07 09:11:20;;;;;;;3.05;1.42;;;;;;;-2.06;100.00;98863.00;5173909;27;20412;-49
2022/01/07 09:13:48;;;;;;;5.70;1.48;;;;;;;-1.98;100.00;98852.41;5174222;27;20054;-49
2022/01/07 09:16:14;;;;;;;3.33;1.42;;;;;;;-1.87;100.00;98863.00;5174235;27;20465;-50
2022/01/07 09:18:40;;;;;;;5.63;1.42;;;;;;;-1.89;100.00;98860.63;5174236;27;20045;-50
2022/01/07 09:21:07;;;;;;;10.32;2.13;;;;;;;-1.87;100.00;98852.25;5174030;27;20046;-49
2022/01/07 09:23:34;;;;;;;3.80;1.05;;;;;;;-1.74;100.00;98867.66;5174220;27;20054;-52
2022/01/07 09:26:00;;;;;;;4.65;1.45;;;;;;;-1.65;100.00;98860.53;5174178;27;20099;-50
2022/01/07 09:28:27;;;;;;;2.40;1.65;;;;;;;-1.59;100.00;98848.63;5174135;27;20471;-50
2022/01/07 09:30:53;;;;;;;4.57;1.50;;;;;;;-1.52;100.00;98821.38;5174105;27;20160;-51
2022/01/07 09:33:20;;;;;;;2.30;1.25;;;;;;;-1.57;100.00;98814.16;5174387;27;20049;-52
2022/01/07 09:35:46;;;;;;;5.07;1.30;;;;;;;-1.56;100.00;98812.28;5174404;27;20523;-51
2022/01/07 09:38:12;;;;;;;3.88;1.27;;;;;;;-1.61;100.00;98793.53;5174144;27;20100;-53
2022/01/07 09:40:38;;;;;;;2.50;1.30;;;;;;;-1.62;100.00;98798.13;5173992;27;20050;-51
2022/01/07 09:43:07;;;;;;;2.35;1.35;;;;;;;-1.61;100.00;98801.59;5173722;27;20054;-54
2022/01/07 09:45:36;;;;;;;2.53;1.13;;;;;;;-1.74;100.00;98803.16;5173871;27;20046;-49
2022/01/07 09:48:03;;;;;;;4.43;1.20;;;;;;;-1.75;100.00;98817.69;5173925;27;20378;-49
2022/01/07 09:50:31;;;;;;;1.98;1.08;;;;;;;-1.75;100.00;98817.69;5174052;27;20606;-51
2022/01/07 09:52:58;;;;;;;3.97;1.58;;;;;;;-1.60;100.00;98827.38;5173545;27;20081;-50
2022/01/07 09:55:24;;;;;;;5.32;1.75;;;;;;;-1.57;100.00;98849.09;5173547;27;20048;-50
2022/01/07 09:57:50;;;;;;;8.38;2.13;;;;;;;-1.25;100.00;98867.16;5173635;27;20486;-53
2022/01/07 10:00:17;;;;;;;6.13;1.88;;;;;;;-1.02;100.00;98854.66;5173468;27;20053;-49
2022/01/07 10:03:00;;;;;;;1.90;1.27;;;;;;;-0.96;100.00;98796.19;5173522;27;20061;-54
2022/01/07 10:05:26;;;;;;;3.17;1.52;;;;;;;-1.04;100.00;98735.78;5173216;27;20500;-51
2022/01/07 10:07:52;;;;;;;5.43;1.75;;;;;;;-1.18;100.00;98705.41;5173372;27;20515;-50
2022/01/07 10:10:19;;;;;;;3.63;1.50;;;;;;;-1.30;100.00;98705.91;5172928;27;20129;-51
2022/01/07 10:12:51;;;;;;;7.72;1.73;;;;;;;-1.42;100.00;98725.19;5173432;27;20050;-50
2022/01/07 10:15:21;;;;;;;3.53;1.40;;;;;;;-1.52;100.00;98724.59;5173091;27;20042;-51
2022/01/07 10:17:59;;;;;;;1.77;1.15;;;;;;;-1.55;100.00;98744.00;5173360;27;20050;-50
2022/01/07 10:20:28;;;;;;;4.57;1.48;;;;;;;-1.63;100.00;98779.59;5173111;27;20057;-53
2022/01/07 10:22:58;;;;;;;3.88;1.60;;;;;;;-1.66;100.00;98773.72;5173005;27;20046;-50
2022/01/07 10:25:27;;;;;;;5.20;1.75;;;;;;;-1.65;100.00;98771.84;5172990;27;20106;-50
2022/01/07 10:28:00;;;;;;;2.72;1.50;;;;;;;-1.66;100.00;98778.31;5172990;27;20523;-49
2022/01/07 10:30:27;;;;;;;4.90;1.58;;;;;;;-1.64;100.00;98799.50;5172962;27;20050;-50
2022/01/07 10:32:54;;;;;;;3.58;1.40;;;;;;;-1.54;100.00;98802.81;5172943;27;20046;-50
2022/01/07 10:35:23;;;;;;;1.58;1.20;;;;;;;-1.70;100.00;98767.34;5173204;27;20046;-50
2022/01/07 10:37:53;;;;;;;3.63;1.40;;;;;;;-1.67;100.00;98750.63;5172686;27;20062;-49
2022/01/07 10:40:26;;;;;;;4.93;1.58;;;;;;;-1.52;100.00;98759.53;5172901;27;20141;-51
2022/01/07 10:42:54;;;;;;;3.63;1.55;;;;;;;-1.29;100.00;98787.38;5172688;27;20057;-50
2022/01/07 10:45:21;;;;;;;7.90;1.52;;;;;;;-1.05;100.00;98763.00;5172856;27;20050;-49
2022/01/07 10:47:52;;;;;;;1.30;1.20;;;;;;;-0.99;100.00;98706.09;5172982;27;20493;-49
2022/01/07 10:50:21;;;;;;;4.53;1.77;;;;;;;-0.74;100.00;98674.34;5172531;27;20141;-50
2022/01/07 10:52:47;;;;;;;4.18;1.65;;;;;;;-0.44;100.00;98647.84;5172791;27;20050;-51
2022/01/07 10:55:18;;;;;;;5.65;1.25;;;;;;;-0.20;100.00;98599.88;5173011;27;20080;-51
2022/01/07 10:57:46;;;;;;;5.85;1.30;;;;;;;0.01;100.00;98538.19;5172700;27;20063;-50
2022/01/07 11:00:14;;;;;;;5.85;1.70;;;;;;;0.23;100.00;98472.59;5172632;27;20097;-50
2022/01/07 11:02:41;;;;;;;3.70;1.15;;;;;;;0.46;100.00;98440.94;5172608;27;20060;-50
2022/01/07 11:05:08;;;;;;;5.22;1.42;;;;;;;0.73;100.00;98358.09;5171819;27;20054;-51
2022/01/07 11:07:35;;;;;;;7.07;1.65;;;;;;;0.98;100.00;98262.81;5172725;27;20046;-51
2022/01/07 11:10:02;;;;;;;6.57;1.63;;;;;;;0.87;100.00;98191.44;5172177;27;20046;-51
2022/01/07 11:12:30;;;;;;;1.67;1.50;;;;;;;0.70;100.00;98157.22;5172087;27;20046;-52
2022/01/07 11:14:57;;;;;;;4.20;1.40;;;;;;;0.50;100.00;98171.41;5172194;27;20102;-50
2022/01/07 11:17:24;;;;;;;3.75;1.75;;;;;;;0.39;100.00;98208.72;5172267;27;20070;-53
2022/01/07 11:19:52;;;;;;;5.28;2.30;;;;;;;0.14;100.00;98235.41;5172166;27;20071;-51
2022/01/07 11:22:19;;;;;;;3.55;2.08;;;;;;;-0.11;100.00;98252.38;5172317;27;20061;-51
2022/01/07 11:24:48;;;;;;;4.70;1.80;;;;;;;-0.11;100.00;98279.31;5172244;27;20050;-52
2022/01/07 11:27:16;;;;;;;3.30;1.80;;;;;;;0.05;100.00;98301.19;5171989;27;20050;-52
2022/01/07 11:29:52;;;;;;;3.17;1.73;;;;;;;0.35;100.00;98319.09;5172437;27;20056;-53
2022/01/07 11:32:36;;;;;;;4.32;2.00;;;;;;;0.72;100.00;98324.94;5172085;27;20054;-53
2022/01/07 11:35:48;;;;;;;6.85;1.90;;;;;;;0.88;100.00;98261.25;5172249;27;20469;-55